sensor_id;sensor_type;location;lat;lon;timestamp;pressure;altitude;pressure_sealevel;temperature;humidity
60897;BME280;46749;32.932;-117.130;2023-02-18T00:01:16;101465.47;;;14.53;49.00
60897;BME280;46749;32.932;-117.130;2023-02-18T00:03:44;101455.91;;;14.53;48.97
60897;BME280;46749;32.932;-117.130;2023-02-18T00:06:13;101459.41;;;14.54;48.96
60897;BME280;46749;32.932;-117.130;2023-02-18T00:08:40;101464.63;;;14.54;49.09
60897;BME280;46749;32.932;-117.130;2023-02-18T00:11:07;101449.78;;;14.53;48.89
60897;BME280;46749;32.932;-117.130;2023-02-18T00:13:35;101457.69;;;14.54;49.15
60897;BME280;46749;32.932;-117.130;2023-02-18T00:16:06;101456.78;;;14.54;48.98
60897;BME280;46749;32.932;-117.130;2023-02-18T00:18:32;101453.28;;;14.53;48.75
60897;BME280;46749;32.932;-117.130;2023-02-18T00:20:59;101454.22;;;14.55;48.89
60897;BME280;46749;32.932;-117.130;2023-02-18T00:23:25;101452.50;;;14.56;48.95
60897;BME280;46749;32.932;-117.130;2023-02-18T00:26:03;101457.72;;;14.56;48.82
60897;BME280;46749;32.932;-117.130;2023-02-18T00:28:30;101449.91;;;14.57;48.93
60897;BME280;46749;32.932;-117.130;2023-02-18T00:30:56;101452.53;;;14.57;48.73
60897;BME280;46749;32.932;-117.130;2023-02-18T00:33:22;101446.41;;;14.57;48.92
60897;BME280;46749;32.932;-117.130;2023-02-18T00:35:49;101441.19;;;14.57;48.84
60897;BME280;46749;32.932;-117.130;2023-02-18T00:38:15;101441.19;;;14.57;48.92
60897;BME280;46749;32.932;-117.130;2023-02-18T00:40:42;101441.19;;;14.57;48.72
60897;BME280;46749;32.932;-117.130;2023-02-18T00:43:09;101446.41;;;14.57;48.68
60897;BME280;46749;32.932;-117.130;2023-02-18T00:45:35;101442.06;;;14.57;48.86
60897;BME280;46749;32.932;-117.130;2023-02-18T00:48:01;101432.50;;;14.58;48.88
60897;BME280;46749;32.932;-117.130;2023-02-18T00:50:28;101429.00;;;14.57;48.67
60897;BME280;46749;32.932;-117.130;2023-02-18T00:52:54;101431.63;;;14.57;48.84
60897;BME280;46749;32.932;-117.130;2023-02-18T00:55:20;101429.88;;;14.58;48.56
60897;BME280;46749;32.932;-117.130;2023-02-18T00:57:46;101432.50;;;14.58;48.76
60897;BME280;46749;32.932;-117.130;2023-02-18T01:00:12;101434.31;;;14.59;48.79
60897;BME280;46749;32.932;-117.130;2023-02-18T01:02:39;101430.81;;;14.59;48.94
60897;BME280;46749;32.932;-117.130;2023-02-18T01:05:05;101429.88;;;14.58;48.79
60897;BME280;46749;32.932;-117.130;2023-02-18T01:07:31;101424.72;;;14.60;48.82
60897;BME280;46749;32.932;-117.130;2023-02-18T01:09:57;101429.06;;;14.59;48.70
60897;BME280;46749;32.932;-117.130;2023-02-18T01:12:24;101428.19;;;14.59;48.70
60897;BME280;46749;32.932;-117.130;2023-02-18T01:14:50;101434.31;;;14.59;48.83
60897;BME280;46749;32.932;-117.130;2023-02-18T01:17:16;101444.75;;;14.59;48.86
60897;BME280;46749;32.932;-117.130;2023-02-18T01:19:42;101442.16;;;14.59;48.68
60897;BME280;46749;32.932;-117.130;2023-02-18T01:22:08;101440.41;;;14.60;48.58
60897;BME280;46749;32.932;-117.130;2023-02-18T01:24:35;101437.81;;;14.60;48.72
60897;BME280;46749;32.932;-117.130;2023-02-18T01:27:03;101443.91;;;14.60;48.69
60897;BME280;46749;32.932;-117.130;2023-02-18T01:29:29;101444.75;;;14.59;48.56
60897;BME280;46749;32.932;-117.130;2023-02-18T01:31:55;101450.00;;;14.59;48.79
60897;BME280;46749;32.932;-117.130;2023-02-18T01:34:22;101443.91;;;14.60;48.80
60897;BME280;46749;32.932;-117.130;2023-02-18T01:36:48;101450.06;;;14.62;48.68
60897;BME280;46749;32.932;-117.130;2023-02-18T01:39:14;101448.34;;;14.63;48.82
60897;BME280;46749;32.932;-117.130;2023-02-18T01:41:40;101447.50;;;14.64;48.70
60897;BME280;46749;32.932;-117.130;2023-02-18T01:44:26;101444.00;;;14.63;48.87
60897;BME280;46749;32.932;-117.130;2023-02-18T01:46:53;101443.16;;;14.64;48.79
60897;BME280;46749;32.932;-117.130;2023-02-18T01:49:24;101444.06;;;14.65;48.83
60897;BME280;46749;32.932;-117.130;2023-02-18T01:52:15;101447.56;;;14.65;48.54
60897;BME280;46749;32.932;-117.130;2023-02-18T01:54:49;101448.38;;;14.64;48.80
60897;BME280;46749;32.932;-117.130;2023-02-18T01:57:48;101452.72;;;14.64;48.61
60897;BME280;46749;32.932;-117.130;2023-02-18T02:00:17;101451.91;;;14.65;48.68
60897;BME280;46749;32.932;-117.130;2023-02-18T02:02:48;101459.75;;;14.65;48.61
60897;BME280;46749;32.932;-117.130;2023-02-18T02:05:15;101453.59;;;14.64;48.39
60897;BME280;46749;32.932;-117.130;2023-02-18T02:07:43;101451.00;;;14.64;48.60
60897;BME280;46749;32.932;-117.130;2023-02-18T02:10:12;101453.59;;;14.64;48.50
60897;BME280;46749;32.932;-117.130;2023-02-18T02:13:09;101448.38;;;14.64;48.54
60897;BME280;46749;32.932;-117.130;2023-02-18T02:16:01;101451.84;;;14.63;48.83
60897;BME280;46749;32.932;-117.130;2023-02-18T02:32:13;101465.75;;;14.62;48.52
60897;BME280;46749;32.932;-117.130;2023-02-18T02:40:27;101470.97;;;14.62;48.49
60897;BME280;46749;32.932;-117.130;2023-02-18T02:51:17;101487.66;;;14.66;48.77
60897;BME280;46749;32.932;-117.130;2023-02-18T02:53:45;101484.16;;;14.65;48.72
60897;BME280;46749;32.932;-117.130;2023-02-18T02:56:16;101491.13;;;14.65;48.63
60897;BME280;46749;32.932;-117.130;2023-02-18T02:58:45;101484.97;;;14.64;48.75
60897;BME280;46749;32.932;-117.130;2023-02-18T03:06:40;101490.22;;;14.64;48.43
60897;BME280;46749;32.932;-117.130;2023-02-18T03:09:20;101488.44;;;14.63;48.60
60897;BME280;46749;32.932;-117.130;2023-02-18T03:14:31;101499.84;;;14.65;48.53
60897;BME280;46749;32.932;-117.130;2023-02-18T03:17:19;101491.22;;;14.68;48.67
60897;BME280;46749;32.932;-117.130;2023-02-18T03:20:27;101492.09;;;14.68;48.86
60897;BME280;46749;32.932;-117.130;2023-02-18T03:22:57;101488.63;;;14.69;49.10
60897;BME280;46749;32.932;-117.130;2023-02-18T03:25:25;101493.88;;;14.69;49.00
60897;BME280;46749;32.932;-117.130;2023-02-18T03:27:59;101492.97;;;14.69;49.00
60897;BME280;46749;32.932;-117.130;2023-02-18T03:30:41;101495.63;;;14.70;48.90
60897;BME280;46749;32.932;-117.130;2023-02-18T03:33:11;101500.94;;;14.72;48.91
60897;BME280;46749;32.932;-117.130;2023-02-18T03:35:40;101499.19;;;14.72;48.99
60897;BME280;46749;32.932;-117.130;2023-02-18T03:38:19;101498.38;;;14.73;49.07
60897;BME280;46749;32.932;-117.130;2023-02-18T03:40:48;101500.13;;;14.74;49.03
60897;BME280;46749;32.932;-117.130;2023-02-18T03:43:14;101507.97;;;14.74;49.27
60897;BME280;46749;32.932;-117.130;2023-02-18T03:45:41;101500.97;;;14.73;49.31
60897;BME280;46749;32.932;-117.130;2023-02-18T03:48:08;101499.28;;;14.75;48.78
60897;BME280;46749;32.932;-117.130;2023-02-18T03:50:34;101505.34;;;14.74;49.01
60897;BME280;46749;32.932;-117.130;2023-02-18T03:53:00;101500.16;;;14.76;49.03
60897;BME280;46749;32.932;-117.130;2023-02-18T03:55:26;101497.56;;;14.76;49.14
60897;BME280;46749;32.932;-117.130;2023-02-18T03:57:53;101500.16;;;14.76;48.87
60897;BME280;46749;32.932;-117.130;2023-02-18T04:00:19;101505.47;;;14.77;49.04
60897;BME280;46749;32.932;-117.130;2023-02-18T04:02:46;101508.16;;;14.80;49.05
60897;BME280;46749;32.932;-117.130;2023-02-18T04:05:12;101510.72;;;14.77;48.04
60897;BME280;46749;32.932;-117.130;2023-02-18T04:07:38;101508.97;;;14.78;48.21
60897;BME280;46749;32.932;-117.130;2023-02-18T04:10:05;101512.41;;;14.77;48.43
60897;BME280;46749;32.932;-117.130;2023-02-18T04:12:33;101513.31;;;14.77;48.35
60897;BME280;46749;32.932;-117.130;2023-02-18T04:14:59;101517.69;;;14.78;48.69
60897;BME280;46749;32.932;-117.130;2023-02-18T04:17:25;101515.09;;;14.78;48.64
60897;BME280;46749;32.932;-117.130;2023-02-18T04:19:51;101508.16;;;14.80;48.64
60897;BME280;46749;32.932;-117.130;2023-02-18T04:22:18;101511.66;;;14.81;48.44
60897;BME280;46749;32.932;-117.130;2023-02-18T04:24:44;101509.94;;;14.81;48.71
60897;BME280;46749;32.932;-117.130;2023-02-18T04:27:10;101514.28;;;14.81;48.99
60897;BME280;46749;32.932;-117.130;2023-02-18T04:29:36;101513.41;;;14.80;48.64
60897;BME280;46749;32.932;-117.130;2023-02-18T04:32:03;101521.25;;;14.80;48.96
60897;BME280;46749;32.932;-117.130;2023-02-18T04:34:29;101531.75;;;14.82;48.89
60897;BME280;46749;32.932;-117.130;2023-02-18T04:36:55;101531.81;;;14.83;48.90
60897;BME280;46749;32.932;-117.130;2023-02-18T04:39:22;101532.63;;;14.82;48.85
60897;BME280;46749;32.932;-117.130;2023-02-18T04:41:48;101528.28;;;14.83;49.02
60897;BME280;46749;32.932;-117.130;2023-02-18T04:44:14;101531.81;;;14.83;48.70
60897;BME280;46749;32.932;-117.130;2023-02-18T04:46:41;101532.63;;;14.82;48.96
60897;BME280;46749;32.932;-117.130;2023-02-18T04:49:07;101532.63;;;14.82;49.15
60897;BME280;46749;32.932;-117.130;2023-02-18T04:51:33;101534.44;;;14.83;48.64
60897;BME280;46749;32.932;-117.130;2023-02-18T04:54:03;101537.09;;;14.85;49.06
60897;BME280;46749;32.932;-117.130;2023-02-18T04:56:29;101537.09;;;14.85;49.21
60897;BME280;46749;32.932;-117.130;2023-02-18T04:58:55;101532.75;;;14.86;48.99
60897;BME280;46749;32.932;-117.130;2023-02-18T05:01:21;101533.59;;;14.84;49.12
60897;BME280;46749;32.932;-117.130;2023-02-18T05:03:47;101530.09;;;14.84;49.07
60897;BME280;46749;32.932;-117.130;2023-02-18T05:06:14;101519.63;;;14.84;49.00
60897;BME280;46749;32.932;-117.130;2023-02-18T05:08:40;101521.41;;;14.85;49.03
60897;BME280;46749;32.932;-117.130;2023-02-18T05:11:07;101523.13;;;14.84;48.98
60897;BME280;46749;32.932;-117.130;2023-02-18T05:13:34;101527.50;;;14.86;49.40
60897;BME280;46749;32.932;-117.130;2023-02-18T05:16:01;101528.34;;;14.84;49.16
60897;BME280;46749;32.932;-117.130;2023-02-18T05:18:27;101532.75;;;14.86;48.83
60897;BME280;46749;32.932;-117.130;2023-02-18T05:20:53;101532.75;;;14.86;49.15
60897;BME280;46749;32.932;-117.130;2023-02-18T05:23:19;101534.50;;;14.87;48.98
60897;BME280;46749;32.932;-117.130;2023-02-18T05:25:46;101535.41;;;14.87;49.10
60897;BME280;46749;32.932;-117.130;2023-02-18T05:28:12;101545.88;;;14.87;49.13
60897;BME280;46749;32.932;-117.130;2023-02-18T05:30:38;101539.75;;;14.87;49.02
60897;BME280;46749;32.932;-117.130;2023-02-18T05:33:05;101531.00;;;14.86;49.17
60897;BME280;46749;32.932;-117.130;2023-02-18T05:35:31;101537.97;;;14.86;49.00
60897;BME280;46749;32.932;-117.130;2023-02-18T05:37:57;101534.47;;;14.85;49.09
60897;BME280;46749;32.932;-117.130;2023-02-18T05:40:23;101539.66;;;14.83;49.07
60897;BME280;46749;32.932;-117.130;2023-02-18T05:42:50;101537.06;;;14.83;48.91
60897;BME280;46749;32.932;-117.130;2023-02-18T05:45:16;101528.28;;;14.83;48.99
60897;BME280;46749;32.932;-117.130;2023-02-18T05:47:42;101533.50;;;14.83;48.92
60897;BME280;46749;32.932;-117.130;2023-02-18T05:50:08;101535.25;;;14.82;48.92
60897;BME280;46749;32.932;-117.130;2023-02-18T05:52:35;101536.97;;;14.82;48.79
60897;BME280;46749;32.932;-117.130;2023-02-18T05:55:01;101534.31;;;14.80;48.83
60897;BME280;46749;32.932;-117.130;2023-02-18T05:57:28;101540.41;;;14.79;48.83
60897;BME280;46749;32.932;-117.130;2023-02-18T05:59:54;101538.63;;;14.78;48.83
60897;BME280;46749;32.932;-117.130;2023-02-18T06:02:20;101537.75;;;14.78;48.76
60897;BME280;46749;32.932;-117.130;2023-02-18T06:04:46;101532.50;;;14.78;48.63
60897;BME280;46749;32.932;-117.130;2023-02-18T06:07:13;101531.63;;;14.77;48.66
60897;BME280;46749;32.932;-117.130;2023-02-18T06:09:59;101529.81;;;14.76;48.43
60897;BME280;46749;32.932;-117.130;2023-02-18T06:12:25;101530.72;;;14.77;48.32
60897;BME280;46749;32.932;-117.130;2023-02-18T06:14:51;101529.91;;;14.78;48.34
60897;BME280;46749;32.932;-117.130;2023-02-18T06:17:17;101534.25;;;14.77;48.49
60897;BME280;46749;32.932;-117.130;2023-02-18T06:19:44;101533.28;;;14.75;48.68
60897;BME280;46749;32.932;-117.130;2023-02-18T06:22:12;101537.59;;;14.73;48.62
60897;BME280;46749;32.932;-117.130;2023-02-18T06:24:38;101532.34;;;14.73;48.61
60897;BME280;46749;32.932;-117.130;2023-02-18T06:27:04;101531.44;;;14.71;48.48
60897;BME280;46749;32.932;-117.130;2023-02-18T06:29:31;101534.03;;;14.71;48.53
60897;BME280;46749;32.932;-117.130;2023-02-18T06:31:58;101535.78;;;14.71;48.50
60897;BME280;46749;32.932;-117.130;2023-02-18T06:34:26;101536.59;;;14.70;48.49
60897;BME280;46749;32.932;-117.130;2023-02-18T06:36:52;101539.19;;;14.70;48.38
60897;BME280;46749;32.932;-117.130;2023-02-18T06:39:18;101533.09;;;14.69;48.37
60897;BME280;46749;32.932;-117.130;2023-02-18T06:41:45;101536.53;;;14.68;48.53
60897;BME280;46749;32.932;-117.130;2023-02-18T06:44:11;101543.50;;;14.68;48.33
60897;BME280;46749;32.932;-117.130;2023-02-18T06:46:39;101540.84;;;14.66;48.40
60897;BME280;46749;32.932;-117.130;2023-02-18T06:49:06;101537.38;;;14.67;48.22
60897;BME280;46749;32.932;-117.130;2023-02-18T06:51:32;101538.22;;;14.66;48.41
60897;BME280;46749;32.932;-117.130;2023-02-18T06:53:58;101544.31;;;14.65;48.34
60897;BME280;46749;32.932;-117.130;2023-02-18T06:56:24;101546.91;;;14.65;48.26
60897;BME280;46749;32.932;-117.130;2023-02-18T06:58:50;101541.59;;;14.64;48.35
60897;BME280;46749;32.932;-117.130;2023-02-18T07:01:17;101535.50;;;14.63;48.24
60897;BME280;46749;32.932;-117.130;2023-02-18T07:03:43;101527.59;;;14.62;48.34
60897;BME280;46749;32.932;-117.130;2023-02-18T07:06:09;101536.34;;;14.62;48.01
60897;BME280;46749;32.932;-117.130;2023-02-18T07:08:35;101539.75;;;14.60;48.43
60897;BME280;46749;32.932;-117.130;2023-02-18T07:11:02;101538.03;;;14.60;48.30
60897;BME280;46749;32.932;-117.130;2023-02-18T07:13:29;101534.53;;;14.60;48.06
60897;BME280;46749;32.932;-117.130;2023-02-18T07:15:55;101530.13;;;14.59;48.21
60897;BME280;46749;32.932;-117.130;2023-02-18T07:18:21;101542.28;;;14.58;48.13
60897;BME280;46749;32.932;-117.130;2023-02-18T07:20:47;101537.06;;;14.58;48.15
60897;BME280;46749;32.932;-117.130;2023-02-18T07:23:13;101535.28;;;14.57;48.17
60897;BME280;46749;32.932;-117.130;2023-02-18T07:25:40;101537.03;;;14.56;48.36
60897;BME280;46749;32.932;-117.130;2023-02-18T07:28:06;101539.59;;;14.55;48.42
60897;BME280;46749;32.932;-117.130;2023-02-18T07:30:32;101545.66;;;14.54;48.25
60897;BME280;46749;32.932;-117.130;2023-02-18T07:32:58;101543.91;;;14.53;48.17
60897;BME280;46749;32.932;-117.130;2023-02-18T07:35:25;101543.00;;;14.52;48.14
60897;BME280;46749;32.932;-117.130;2023-02-18T07:37:51;101558.69;;;14.52;48.32
60897;BME280;46749;32.932;-117.130;2023-02-18T07:40:19;101557.81;;;14.52;48.17
60897;BME280;46749;32.932;-117.130;2023-02-18T07:42:47;101561.22;;;14.51;48.03
60897;BME280;46749;32.932;-117.130;2023-02-18T07:45:13;101552.50;;;14.50;48.15
60897;BME280;46749;32.932;-117.130;2023-02-18T07:47:40;101545.47;;;14.48;48.34
60897;BME280;46749;32.932;-117.130;2023-02-18T07:50:08;101555.03;;;14.47;48.09
60897;BME280;46749;32.932;-117.130;2023-02-18T07:52:34;101559.38;;;14.47;48.13
60897;BME280;46749;32.932;-117.130;2023-02-18T07:55:01;101562.78;;;14.46;48.13
60897;BME280;46749;32.932;-117.130;2023-02-18T07:57:27;101559.22;;;14.44;48.01
60897;BME280;46749;32.932;-117.130;2023-02-18T07:59:53;101555.72;;;14.43;48.21
60897;BME280;46749;32.932;-117.130;2023-02-18T08:02:21;101555.66;;;14.42;48.11
60897;BME280;46749;32.932;-117.130;2023-02-18T08:04:49;101555.66;;;14.42;48.17
60897;BME280;46749;32.932;-117.130;2023-02-18T08:07:17;101553.91;;;14.41;48.04
60897;BME280;46749;32.932;-117.130;2023-02-18T08:09:45;101564.34;;;14.41;48.14
60897;BME280;46749;32.932;-117.130;2023-02-18T08:12:11;101562.59;;;14.40;48.13
60897;BME280;46749;32.932;-117.130;2023-02-18T08:14:37;101559.00;;;14.38;48.20
60897;BME280;46749;32.932;-117.130;2023-02-18T08:17:04;101559.84;;;14.37;48.09
60897;BME280;46749;32.932;-117.130;2023-02-18T08:19:30;101566.81;;;14.36;48.06
60897;BME280;46749;32.932;-117.130;2023-02-18T08:22:00;101564.19;;;14.36;48.05
60897;BME280;46749;32.932;-117.130;2023-02-18T08:24:27;101566.81;;;14.36;48.15
60897;BME280;46749;32.932;-117.130;2023-02-18T08:26:53;101567.69;;;14.37;48.08
60897;BME280;46749;32.932;-117.130;2023-02-18T08:29:19;101576.38;;;14.36;48.26
60897;BME280;46749;32.932;-117.130;2023-02-18T08:31:46;101568.53;;;14.36;48.36
60897;BME280;46749;32.932;-117.130;2023-02-18T08:34:12;101567.53;;;14.32;48.19
60897;BME280;46749;32.932;-117.130;2023-02-18T08:36:38;101577.09;;;14.31;48.16
60897;BME280;46749;32.932;-117.130;2023-02-18T08:39:04;101577.94;;;14.30;47.94
60897;BME280;46749;32.932;-117.130;2023-02-18T08:41:30;101584.88;;;14.30;47.95
60897;BME280;46749;32.932;-117.130;2023-02-18T08:43:56;101577.84;;;14.27;48.14
60897;BME280;46749;32.932;-117.130;2023-02-18T08:46:23;101570.81;;;14.26;48.23
60897;BME280;46749;32.932;-117.130;2023-02-18T08:48:49;101570.81;;;14.26;48.10
60897;BME280;46749;32.932;-117.130;2023-02-18T08:51:18;101579.47;;;14.25;48.28
60897;BME280;46749;32.932;-117.130;2023-02-18T08:53:45;101579.44;;;14.24;48.06
60897;BME280;46749;32.932;-117.130;2023-02-18T08:56:13;101576.78;;;14.22;48.13
60897;BME280;46749;32.932;-117.130;2023-02-18T08:58:40;101579.41;;;14.22;48.21
60897;BME280;46749;32.932;-117.130;2023-02-18T09:01:09;101574.16;;;14.22;48.05
60897;BME280;46749;32.932;-117.130;2023-02-18T09:03:35;101562.75;;;14.20;48.04
60897;BME280;46749;32.932;-117.130;2023-02-18T09:06:02;101563.59;;;14.19;47.89
60897;BME280;46749;32.932;-117.130;2023-02-18T09:08:28;101559.22;;;14.18;48.21
60897;BME280;46749;32.932;-117.130;2023-02-18T09:11:00;101558.31;;;14.18;48.07
60897;BME280;46749;32.932;-117.130;2023-02-18T09:13:29;101550.44;;;14.16;48.14
60897;BME280;46749;32.932;-117.130;2023-02-18T09:16:00;101548.72;;;14.17;47.99
60897;BME280;46749;32.932;-117.130;2023-02-18T09:18:28;101553.94;;;14.17;48.03
60897;BME280;46749;32.932;-117.130;2023-02-18T09:20:58;101554.78;;;14.16;48.07
60897;BME280;46749;32.932;-117.130;2023-02-18T09:23:26;101565.22;;;14.16;48.09
60897;BME280;46749;32.932;-117.130;2023-02-18T09:25:53;101565.19;;;14.14;48.13
60897;BME280;46749;32.932;-117.130;2023-02-18T09:28:19;101570.44;;;14.16;47.82
60897;BME280;46749;32.932;-117.130;2023-02-18T09:30:45;101564.34;;;14.15;47.90
60897;BME280;46749;32.932;-117.130;2023-02-18T09:33:12;101563.38;;;14.13;48.09
60897;BME280;46749;32.932;-117.130;2023-02-18T09:35:44;101552.84;;;14.10;48.04
60897;BME280;46749;32.932;-117.130;2023-02-18T09:38:13;101562.41;;;14.10;48.06
60897;BME280;46749;32.932;-117.130;2023-02-18T09:40:47;101557.13;;;14.08;47.97
60897;BME280;46749;32.932;-117.130;2023-02-18T09:43:37;101568.38;;;14.07;48.17
60897;BME280;46749;32.932;-117.130;2023-02-18T09:46:22;101570.06;;;14.05;48.05
60897;BME280;46749;32.932;-117.130;2023-02-18T09:48:51;101566.56;;;14.04;48.12
60897;BME280;46749;32.932;-117.130;2023-02-18T09:51:18;101560.47;;;14.04;47.91
60897;BME280;46749;32.932;-117.130;2023-02-18T09:53:45;101568.25;;;14.02;47.92
60897;BME280;46749;32.932;-117.130;2023-02-18T09:56:17;101565.63;;;14.02;47.99
60897;BME280;46749;32.932;-117.130;2023-02-18T09:58:46;101564.75;;;14.02;48.06
60897;BME280;46749;32.932;-117.130;2023-02-18T10:04:02;101562.94;;;14.01;48.13
60897;BME280;46749;32.932;-117.130;2023-02-18T10:06:32;101556.78;;;13.99;47.84
60897;BME280;46749;32.932;-117.130;2023-02-18T10:09:04;101557.63;;;13.98;48.07
60897;BME280;46749;32.932;-117.130;2023-02-18T10:11:39;101560.25;;;13.98;47.86
60897;BME280;46749;32.932;-117.130;2023-02-18T10:14:11;101554.97;;;13.96;48.15
60897;BME280;46749;32.932;-117.130;2023-02-18T10:16:38;101554.09;;;13.96;47.88
60897;BME280;46749;32.932;-117.130;2023-02-18T10:19:27;101550.50;;;13.94;48.07
60897;BME280;46749;32.932;-117.130;2023-02-18T10:21:55;101547.97;;;13.95;47.95
60897;BME280;46749;32.932;-117.130;2023-02-18T10:24:41;101551.38;;;13.94;48.04
60897;BME280;46749;32.932;-117.130;2023-02-18T10:27:12;101550.50;;;13.94;47.93
60897;BME280;46749;32.932;-117.130;2023-02-18T10:29:41;101548.72;;;13.93;48.02
60897;BME280;46749;32.932;-117.130;2023-02-18T10:32:26;101550.41;;;13.91;47.77
60897;BME280;46749;32.932;-117.130;2023-02-18T10:35:01;101549.53;;;13.90;48.08
60897;BME280;46749;32.932;-117.130;2023-02-18T10:38:04;101545.06;;;13.88;47.70
60897;BME280;46749;32.932;-117.130;2023-02-18T10:40:55;101545.06;;;13.88;47.97
60897;BME280;46749;32.932;-117.130;2023-02-18T10:43:35;101551.13;;;13.87;47.94
60897;BME280;46749;32.932;-117.130;2023-02-18T10:49:08;101543.19;;;13.84;47.93
60897;BME280;46749;32.932;-117.130;2023-02-18T10:51:44;101535.38;;;13.84;47.95
60897;BME280;46749;32.932;-117.130;2023-02-18T10:54:14;101527.53;;;13.84;48.00
60897;BME280;46749;32.932;-117.130;2023-02-18T10:56:48;101533.56;;;13.83;48.03
60897;BME280;46749;32.932;-117.130;2023-02-18T10:59:25;101538.72;;;13.81;48.02
60897;BME280;46749;32.932;-117.130;2023-02-18T11:02:03;101525.63;;;13.80;48.06
60897;BME280;46749;32.932;-117.130;2023-02-18T11:04:36;101526.50;;;13.80;47.92
60897;BME280;46749;32.932;-117.130;2023-02-18T11:07:07;101518.63;;;13.79;48.00
60897;BME280;46749;32.932;-117.130;2023-02-18T11:09:41;101513.38;;;13.77;48.01
60897;BME280;46749;32.932;-117.130;2023-02-18T11:14:44;101509.78;;;13.75;48.06
60897;BME280;46749;32.932;-117.130;2023-02-18T11:17:25;101505.41;;;13.74;48.10
60897;BME280;46749;32.932;-117.130;2023-02-18T11:20:19;101501.06;;;13.74;48.05
60897;BME280;46749;32.932;-117.130;2023-02-18T11:22:45;101501.97;;;13.75;47.96
60897;BME280;46749;32.932;-117.130;2023-02-18T11:25:39;101497.53;;;13.72;48.01
60897;BME280;46749;32.932;-117.130;2023-02-18T11:30:43;101500.13;;;13.72;48.04
60897;BME280;46749;32.932;-117.130;2023-02-18T11:33:40;101491.38;;;13.70;48.01
60897;BME280;46749;32.932;-117.130;2023-02-18T11:38:56;101500.84;;;13.68;48.08
60897;BME280;46749;32.932;-117.130;2023-02-18T11:41:35;101505.19;;;13.68;47.86
60897;BME280;46749;32.932;-117.130;2023-02-18T11:44:06;101486.88;;;13.66;48.10
60897;BME280;46749;32.932;-117.130;2023-02-18T11:46:33;101489.44;;;13.65;47.95
60897;BME280;46749;32.932;-117.130;2023-02-18T11:49:21;101493.75;;;13.64;48.16
60897;BME280;46749;32.932;-117.130;2023-02-18T11:51:48;101503.28;;;13.64;47.99
60897;BME280;46749;32.932;-117.130;2023-02-18T11:57:01;101506.72;;;13.63;47.92
60897;BME280;46749;32.932;-117.130;2023-02-18T11:59:31;101522.41;;;13.63;48.10
60897;BME280;46749;32.932;-117.130;2023-02-18T12:04:40;101527.56;;;13.61;48.06
60897;BME280;46749;32.932;-117.130;2023-02-18T12:07:26;101527.53;;;13.60;48.02
60897;BME280;46749;32.932;-117.130;2023-02-18T12:10:03;101530.09;;;13.58;48.09
60897;BME280;46749;32.932;-117.130;2023-02-18T12:12:49;101532.69;;;13.58;48.03
60897;BME280;46749;32.932;-117.130;2023-02-18T12:15:33;101530.00;;;13.57;48.11
60897;BME280;46749;32.932;-117.130;2023-02-18T12:26:43;101514.34;;;13.57;48.11
60897;BME280;46749;32.932;-117.130;2023-02-18T12:29:41;101508.22;;;13.56;48.08
60897;BME280;46749;32.932;-117.130;2023-02-18T12:38:03;101528.06;;;13.51;48.02
60897;BME280;46749;32.932;-117.130;2023-02-18T12:46:39;101514.91;;;13.48;48.01
60897;BME280;46749;32.932;-117.130;2023-02-18T12:49:26;101515.75;;;13.47;48.24
60897;BME280;46749;32.932;-117.130;2023-02-18T12:55:16;101508.75;;;13.46;48.22
60897;BME280;46749;32.932;-117.130;2023-02-18T12:57:35;101501.72;;;13.45;47.99
60897;BME280;46749;32.932;-117.130;2023-02-18T13:06:02;101501.84;;;13.48;47.97
60897;BME280;46749;32.932;-117.130;2023-02-18T13:13:57;101489.50;;;13.44;48.18
60897;BME280;46749;32.932;-117.130;2023-02-18T13:16:26;101494.69;;;13.42;48.25
60897;BME280;46749;32.932;-117.130;2023-02-18T13:19:02;101499.84;;;13.41;48.26
60897;BME280;46749;32.932;-117.130;2023-02-18T13:21:33;101494.63;;;13.41;48.44
60897;BME280;46749;32.932;-117.130;2023-02-18T13:24:08;101499.84;;;13.41;48.39
60897;BME280;46749;32.932;-117.130;2023-02-18T13:26:36;101510.28;;;13.41;48.36
60897;BME280;46749;32.932;-117.130;2023-02-18T13:29:33;101498.91;;;13.39;48.35
60897;BME280;46749;32.932;-117.130;2023-02-18T13:34:59;101488.41;;;13.37;48.14
60897;BME280;46749;32.932;-117.130;2023-02-18T13:40:29;101495.47;;;13.40;48.21
60897;BME280;46749;32.932;-117.130;2023-02-18T13:43:36;101488.50;;;13.39;48.07
60897;BME280;46749;32.932;-117.130;2023-02-18T13:48:28;101491.91;;;13.38;48.45
60897;BME280;46749;32.932;-117.130;2023-02-18T13:51:02;101504.00;;;13.36;48.44
60897;BME280;46749;32.932;-117.130;2023-02-18T13:53:33;101504.00;;;13.36;48.48
60897;BME280;46749;32.932;-117.130;2023-02-18T13:56:10;101496.13;;;13.34;48.41
60897;BME280;46749;32.932;-117.130;2023-02-18T13:58:54;101491.75;;;13.33;48.41
60897;BME280;46749;32.932;-117.130;2023-02-18T14:01:43;101495.16;;;13.32;48.51
60897;BME280;46749;32.932;-117.130;2023-02-18T14:10:09;101512.63;;;13.33;48.18
60897;BME280;46749;32.932;-117.130;2023-02-18T14:26:17;101516.03;;;13.32;48.36
60897;BME280;46749;32.932;-117.130;2023-02-18T14:39:25;101540.13;;;13.25;48.49
60897;BME280;46749;32.932;-117.130;2023-02-18T14:42:02;101535.78;;;13.26;48.67
60897;BME280;46749;32.932;-117.130;2023-02-18T14:45:21;101544.59;;;13.28;48.63